createdAt,value
2022-11-17T00:01:47.649Z,96037.63
2022-11-17T00:04:49.741Z,96039.63
2022-11-17T00:07:51.936Z,96043.91
2022-11-17T00:10:54.096Z,96037.28
2022-11-17T00:14:14.976Z,96033.41
2022-11-17T00:17:17.249Z,96037.75
2022-11-17T00:20:37.673Z,96032.59
2022-11-17T00:23:50.223Z,96031.09
2022-11-17T00:27:01.757Z,96035.06
2022-11-17T00:30:05.227Z,96029.13
2022-11-17T00:33:27.580Z,96032.19
2022-11-17T00:36:29.685Z,96040.19
2022-11-17T00:39:31.782Z,96039.16
2022-11-17T00:42:33.870Z,96041.75
2022-11-17T00:45:36.034Z,96035.91
2022-11-17T00:48:38.119Z,96028.03
2022-11-17T00:51:40.216Z,96028.88
2022-11-17T00:54:42.305Z,96019.34
2022-11-17T00:57:44.392Z,96014.47
2022-11-17T01:00:49.649Z,95998.31
2022-11-17T01:04:02.823Z,95999.59
2022-11-17T01:07:05.438Z,96000.91
2022-11-17T01:10:08.411Z,95992.41
2022-11-17T01:13:10.517Z,95989.88
2022-11-17T01:16:18.125Z,95995.94
2022-11-17T01:19:20.339Z,95985.41
2022-11-17T01:22:22.429Z,95996.31
2022-11-17T01:25:24.506Z,96004.31
2022-11-17T01:28:26.559Z,95999.53
2022-11-17T01:31:30.976Z,95993.06
2022-11-17T01:34:33.146Z,95994.66
2022-11-17T01:37:35.224Z,95996.41
2022-11-17T01:40:37.300Z,95994.16
2022-11-17T01:43:41.593Z,95990.72
2022-11-17T01:46:43.672Z,95992.94
2022-11-17T01:49:45.807Z,95998.34
2022-11-17T01:52:49.271Z,96002.00
2022-11-17T01:55:56.351Z,95999.47
2022-11-17T01:59:03.243Z,95989.50
2022-11-17T02:02:05.355Z,95988.63
2022-11-17T02:05:19.232Z,95996.38
2022-11-17T02:08:22.882Z,95989.03
2022-11-17T02:11:36.049Z,95986.38
2022-11-17T02:14:38.377Z,95990.97
2022-11-17T02:17:42.313Z,95991.16
2022-11-17T02:21:38.397Z,95983.34
2022-11-17T02:25:16.396Z,95987.78
2022-11-17T02:28:31.809Z,95977.69
2022-11-17T02:32:02.604Z,95980.19
2022-11-17T02:35:48.773Z,95982.72
2022-11-17T02:39:05.034Z,95963.88
2022-11-17T02:42:59.891Z,95967.38
2022-11-17T02:46:11.973Z,95975.22
2022-11-17T02:49:37.039Z,95950.56
2022-11-17T02:52:39.090Z,95961.06
2022-11-17T02:55:41.129Z,95971.13
2022-11-17T02:58:43.274Z,95960.03
2022-11-17T03:02:16.083Z,95967.13
2022-11-17T03:05:31.209Z,95957.56
2022-11-17T03:08:50.409Z,95952.22
2022-11-17T03:12:09.576Z,95947.13
2022-11-17T03:15:50.527Z,95952.16
2022-11-17T03:19:24.110Z,95949.50
2022-11-17T03:23:01.768Z,95943.44
2022-11-17T03:26:05.368Z,95943.19
2022-11-17T03:29:10.446Z,95946.03
2022-11-17T03:32:12.472Z,95941.41
2022-11-17T03:35:18.793Z,95933.69
2022-11-17T03:38:23.374Z,95939.75
2022-11-17T03:41:26.126Z,95933.53
2022-11-17T03:44:29.317Z,95925.63
2022-11-17T03:47:31.422Z,95934.28
2022-11-17T03:51:15.046Z,95931.88
2022-11-17T03:54:17.111Z,95927.59
2022-11-17T03:57:34.181Z,95925.22
2022-11-17T04:00:36.518Z,95929.66
2022-11-17T04:03:39.620Z,95922.59
2022-11-17T04:06:41.677Z,95925.16
2022-11-17T04:09:43.748Z,95928.00
2022-11-17T04:13:06.643Z,95924.09
2022-11-17T04:16:08.728Z,95925.53
2022-11-17T04:19:10.854Z,95921.34
2022-11-17T04:22:12.949Z,95921.75
2022-11-17T04:25:35.072Z,95928.22
2022-11-17T04:28:45.857Z,95922.13
2022-11-17T04:31:48.013Z,95912.06
2022-11-17T04:34:50.101Z,95918.72
2022-11-17T04:37:52.222Z,95920.69
2022-11-17T04:41:22.293Z,95922.53
2022-11-17T04:44:28.530Z,95927.31
2022-11-17T04:47:30.581Z,95921.28
2022-11-17T04:50:32.589Z,95923.78
2022-11-17T04:53:34.876Z,95914.00
2022-11-17T04:56:37.383Z,95913.91
2022-11-17T04:59:39.486Z,95920.88
2022-11-17T05:02:41.614Z,95915.66
2022-11-17T05:05:48.280Z,95924.38
2022-11-17T05:08:50.749Z,95924.78
2022-11-17T05:12:11.081Z,95925.47
2022-11-17T05:15:33.084Z,95911.94
2022-11-17T05:18:35.105Z,95912.34
2022-11-17T05:21:37.258Z,95907.25
2022-11-17T05:24:39.294Z,95911.28
2022-11-17T05:27:41.316Z,95922.63
2022-11-17T05:30:43.358Z,95914.78
2022-11-17T05:33:45.409Z,95908.91
2022-11-17T05:36:47.552Z,95909.00
2022-11-17T05:39:49.605Z,95918.50
2022-11-17T05:42:55.877Z,95925.16
2022-11-17T05:45:59.142Z,95921.34
2022-11-17T05:49:01.303Z,95910.56
2022-11-17T05:52:03.321Z,95904.00
2022-11-17T05:55:06.123Z,95897.88
2022-11-17T05:58:25.319Z,95916.25
2022-11-17T06:01:27.473Z,95897.75
2022-11-17T06:04:29.700Z,95902.56
2022-11-17T06:07:31.882Z,95900.31
2022-11-17T06:10:34.698Z,95891.31
2022-11-17T06:13:37.197Z,95898.53
2022-11-17T06:16:42.385Z,95905.00
2022-11-17T06:19:46.658Z,95887.50
2022-11-17T06:22:48.846Z,95891.81
2022-11-17T06:25:50.898Z,95887.78
2022-11-17T06:28:53.035Z,95897.38
2022-11-17T06:31:57.133Z,95885.13
2022-11-17T06:34:59.391Z,95881.50
2022-11-17T06:38:02.177Z,95886.13
2022-11-17T06:41:08.917Z,95879.66
2022-11-17T06:44:13.824Z,95877.91
2022-11-17T06:47:15.887Z,95868.63
2022-11-17T06:50:17.994Z,95870.47
2022-11-17T06:53:20.386Z,95864.31
2022-11-17T06:56:22.455Z,95869.22
2022-11-17T06:59:24.562Z,95873.22
2022-11-17T07:02:26.677Z,95858.44
2022-11-17T07:05:28.803Z,95862.06
2022-11-17T07:08:31.447Z,95854.63
2022-11-17T07:11:36.281Z,95851.59
2022-11-17T07:14:38.415Z,95861.28
2022-11-17T07:17:40.503Z,95852.09
2022-11-17T07:20:42.620Z,95855.91
2022-11-17T07:23:47.443Z,95843.78
2022-11-17T07:26:49.597Z,95847.50
2022-11-17T07:29:51.713Z,95858.91
2022-11-17T07:32:54.998Z,95847.28
2022-11-17T07:36:02.199Z,95843.66
2022-11-17T07:39:05.982Z,95847.78
2022-11-17T07:42:08.155Z,95844.50
2022-11-17T07:45:10.663Z,95829.84
2022-11-17T07:48:12.782Z,95835.19
2022-11-17T07:51:15.915Z,95831.69
2022-11-17T07:54:43.087Z,95829.53
2022-11-17T07:57:45.361Z,95829.91
2022-11-17T08:00:47.526Z,95829.25
2022-11-17T08:03:49.664Z,95824.44
2022-11-17T08:06:51.929Z,95826.06
2022-11-17T08:09:54.070Z,95832.03
2022-11-17T08:12:56.192Z,95830.06
2022-11-17T08:15:59.298Z,95816.88
2022-11-17T08:19:01.451Z,95821.41
2022-11-17T08:22:03.568Z,95824.50
2022-11-17T08:25:06.272Z,95826.16
2022-11-17T08:28:08.366Z,95821.56
2022-11-17T08:31:10.494Z,95812.88
2022-11-17T08:34:12.936Z,95822.72
2022-11-17T08:37:15.046Z,95816.97
2022-11-17T08:40:18.369Z,95804.34
2022-11-17T08:43:20.471Z,95806.66
2022-11-17T08:46:23.104Z,95807.88
2022-11-17T08:49:25.331Z,95806.19
2022-11-17T08:52:28.325Z,95787.50
2022-11-17T08:55:30.460Z,95798.34
2022-11-17T08:58:32.716Z,95791.41
2022-11-17T09:01:34.960Z,95787.88
2022-11-17T09:04:37.074Z,95772.78
2022-11-17T09:07:39.209Z,95777.69
2022-11-17T09:10:41.643Z,95780.66
2022-11-17T09:13:45.658Z,95775.50
2022-11-17T09:16:47.814Z,95777.53
2022-11-17T09:19:49.911Z,95772.06
2022-11-17T09:22:51.972Z,95764.03
2022-11-17T09:25:54.091Z,95768.03
2022-11-17T09:28:56.154Z,95761.00
2022-11-17T09:31:58.241Z,95758.13
2022-11-17T09:35:00.953Z,95760.88
2022-11-17T09:38:03.107Z,95764.25
2022-11-17T09:41:28.382Z,95755.84
2022-11-17T09:44:40.738Z,95752.25
2022-11-17T09:48:33.526Z,95755.75
2022-11-17T09:51:25.273Z,95745.56
2022-11-17T09:54:47.152Z,95738.34
2022-11-17T09:57:53.617Z,95740.59
2022-11-17T10:00:55.743Z,95742.97
2022-11-17T10:04:00.069Z,95744.13
2022-11-17T10:07:04.093Z,95750.97
2022-11-17T10:10:06.942Z,95738.34
2022-11-17T10:13:38.839Z,95738.56
2022-11-17T10:16:57.921Z,95748.69
2022-11-17T10:20:00.078Z,95740.13
2022-11-17T10:23:02.145Z,95745.03
2022-11-17T10:26:09.745Z,95733.19
2022-11-17T10:29:14.116Z,95732.50
2022-11-17T10:32:16.250Z,95719.22
2022-11-17T10:35:20.430Z,95723.34
2022-11-17T10:38:28.976Z,95721.22
2022-11-17T10:41:39.230Z,95713.34
2022-11-17T10:44:42.115Z,95720.72
2022-11-17T10:47:44.206Z,95713.94
2022-11-17T10:51:16.050Z,95715.28
2022-11-17T10:54:18.010Z,95723.00
2022-11-17T10:57:24.090Z,95727.88
2022-11-17T11:00:32.841Z,95721.28
2022-11-17T11:03:35.465Z,95731.00
2022-11-17T11:06:37.887Z,95729.81
2022-11-17T11:09:44.858Z,95725.59
2022-11-17T11:13:16.895Z,95726.97
2022-11-17T11:16:18.975Z,95725.72
2022-11-17T11:19:21.417Z,95722.00
2022-11-17T11:23:04.394Z,95730.19
2022-11-17T11:26:47.550Z,95734.59
2022-11-17T11:30:01.019Z,95735.09
2022-11-17T11:33:39.151Z,95739.50
2022-11-17T11:37:16.540Z,95731.28
2022-11-17T11:40:31.999Z,95728.53
2022-11-17T11:44:02.131Z,95735.81
2022-11-17T11:47:28.122Z,95745.97
2022-11-17T11:50:41.886Z,95737.56
2022-11-17T11:54:01.682Z,95740.66
2022-11-17T11:57:03.835Z,95742.66
2022-11-17T12:00:13.316Z,95747.53
2022-11-17T12:03:43.340Z,95749.22
2022-11-17T12:07:23.065Z,95753.75
2022-11-17T12:10:46.395Z,95728.97
2022-11-17T12:13:53.981Z,95751.22
2022-11-17T12:17:26.210Z,95761.41
2022-11-17T12:20:31.270Z,95758.72
2022-11-17T12:24:08.311Z,95770.06
2022-11-17T12:27:35.238Z,95776.00
2022-11-17T12:30:51.072Z,95777.94
2022-11-17T12:33:53.099Z,95778.97
2022-11-17T12:37:22.163Z,95789.50
2022-11-17T12:40:51.052Z,95783.84
2022-11-17T12:43:53.107Z,95787.63
2022-11-17T12:46:56.204Z,95789.25
2022-11-17T12:50:19.490Z,95793.44
2022-11-17T12:53:24.482Z,95790.31
2022-11-17T12:56:51.309Z,95797.00
2022-11-17T13:00:20.514Z,95795.41
2022-11-17T13:03:33.002Z,95797.91
2022-11-17T13:06:36.599Z,95796.03
2022-11-17T13:09:38.959Z,95814.22
2022-11-17T13:12:41.014Z,95812.72
2022-11-17T13:15:43.740Z,95825.81
2022-11-17T13:18:48.894Z,95820.75
2022-11-17T13:22:14.470Z,95817.91
2022-11-17T13:25:23.405Z,95823.34
2022-11-17T13:28:31.349Z,95824.38
2022-11-17T13:31:33.595Z,95819.13
2022-11-17T13:34:36.010Z,95815.53
2022-11-17T13:37:38.138Z,95815.72
2022-11-17T13:40:40.964Z,95826.44
2022-11-17T13:43:43.078Z,95827.88
2022-11-17T13:46:45.119Z,95833.25
2022-11-17T13:49:47.540Z,95838.56
2022-11-17T13:53:11.813Z,95832.84
2022-11-17T13:56:32.493Z,95833.13
2022-11-17T13:59:35.864Z,95845.81
2022-11-17T14:02:37.943Z,95839.78
2022-11-17T14:05:40.002Z,95849.13
2022-11-17T14:08:44.023Z,95846.69
2022-11-17T14:11:46.108Z,95844.16
2022-11-17T14:14:48.178Z,95846.41
2022-11-17T14:17:57.318Z,95848.75
2022-11-17T14:21:10.842Z,95857.16
2022-11-17T14:24:13.459Z,95864.13
2022-11-17T14:27:27.585Z,95857.44
2022-11-17T14:30:29.716Z,95865.16
2022-11-17T14:33:31.780Z,95853.75
2022-11-17T14:36:33.866Z,95867.16
2022-11-17T14:39:35.954Z,95871.03
2022-11-17T14:42:38.082Z,95875.53
2022-11-17T14:45:40.129Z,95874.88
2022-11-17T14:48:42.230Z,95872.25
2022-11-17T14:51:49.634Z,95876.75
2022-11-17T14:54:51.667Z,95885.91
2022-11-17T14:57:53.703Z,95884.34
2022-11-17T15:00:55.899Z,95883.00
2022-11-17T15:04:04.132Z,95887.13
2022-11-17T15:07:13.175Z,95888.94
2022-11-17T15:10:15.253Z,95888.16
2022-11-17T15:13:17.473Z,95896.97
2022-11-17T15:16:19.626Z,95889.66
2022-11-17T15:19:21.771Z,95897.25
2022-11-17T15:22:23.926Z,95901.78
2022-11-17T15:25:26.001Z,95896.69
2022-11-17T15:28:30.499Z,95892.28
2022-11-17T15:31:32.759Z,95896.41
2022-11-17T15:34:37.528Z,95900.28
2022-11-17T15:37:39.565Z,95888.16
2022-11-17T15:40:41.709Z,95908.53
2022-11-17T15:43:44.561Z,95901.13
2022-11-17T15:46:47.778Z,95901.09
2022-11-17T15:49:50.134Z,95904.19
2022-11-17T15:53:07.579Z,95905.09
2022-11-17T15:56:12.390Z,95909.59
2022-11-17T15:59:14.879Z,95914.50
2022-11-17T16:02:17.255Z,95903.16
2022-11-17T16:05:19.311Z,95912.91
2022-11-17T16:08:21.380Z,95908.13
2022-11-17T16:11:24.610Z,95911.75
2022-11-17T16:14:26.717Z,95920.25
2022-11-17T16:17:28.772Z,95904.84
2022-11-17T16:20:30.905Z,95907.78
2022-11-17T16:23:55.927Z,95911.75
2022-11-17T16:26:58.019Z,95917.41
2022-11-17T16:30:00.111Z,95914.25
2022-11-17T16:33:04.059Z,95914.94
2022-11-17T16:36:07.043Z,95922.22
2022-11-17T16:39:12.798Z,95920.25
2022-11-17T16:42:14.887Z,95914.19
2022-11-17T16:45:16.982Z,95916.53
2022-11-17T16:48:19.092Z,95918.16
2022-11-17T16:51:21.623Z,95916.72
2022-11-17T16:54:23.692Z,95920.34
2022-11-17T16:57:27.630Z,95921.69
2022-11-17T17:00:30.030Z,95923.41
2022-11-17T17:03:32.130Z,95918.06
2022-11-17T17:06:34.961Z,95929.22
2022-11-17T17:09:37.914Z,95926.22
2022-11-17T17:12:39.963Z,95923.31
2022-11-17T17:15:42.030Z,95917.00
2022-11-17T17:18:44.234Z,95922.78
2022-11-17T17:21:46.386Z,95924.81
2022-11-17T17:24:48.462Z,95929.19
2022-11-17T17:27:50.537Z,95925.91
2022-11-17T17:30:55.613Z,95932.09
2022-11-17T17:33:57.851Z,95937.72
2022-11-17T17:36:59.914Z,95943.34
2022-11-17T17:40:01.987Z,95941.16
2022-11-17T17:43:04.048Z,95945.81
2022-11-17T17:46:15.424Z,95943.41
2022-11-17T17:49:19.392Z,95952.47
2022-11-17T17:52:21.722Z,95960.28
2022-11-17T17:55:23.770Z,95950.81
2022-11-17T17:58:26.163Z,95950.88
2022-11-17T18:01:33.419Z,95952.47
2022-11-17T18:04:35.477Z,95959.69
2022-11-17T18:07:37.579Z,95955.59
2022-11-17T18:10:39.678Z,95950.44
2022-11-17T18:13:42.658Z,95953.75
2022-11-17T18:16:44.816Z,95951.31
2022-11-17T18:19:46.885Z,95958.94
2022-11-17T18:22:48.920Z,95951.31
2022-11-17T18:25:50.979Z,95961.50
2022-11-17T18:28:54.597Z,95962.13
2022-11-17T18:31:56.714Z,95955.09
2022-11-17T18:34:58.746Z,95966.22
2022-11-17T18:38:00.815Z,95969.00
2022-11-17T18:41:08.539Z,95959.38
2022-11-17T18:44:14.473Z,95962.41
2022-11-17T18:47:18.701Z,95962.47
2022-11-17T18:50:20.804Z,95965.00
2022-11-17T18:53:22.869Z,95971.16
2022-11-17T18:56:35.689Z,95973.41
2022-11-17T18:59:37.767Z,95980.75
2022-11-17T19:02:39.854Z,95974.50
2022-11-17T19:05:41.941Z,95977.16
2022-11-17T19:08:44.115Z,95971.69
2022-11-17T19:11:46.225Z,95973.31
2022-11-17T19:14:48.343Z,95968.09
2022-11-17T19:17:50.463Z,95971.28
2022-11-17T19:20:52.582Z,95973.81
2022-11-17T19:23:57.427Z,95973.59
2022-11-17T19:26:59.581Z,95987.41
2022-11-17T19:30:02.035Z,95977.59
2022-11-17T19:33:04.187Z,95981.03
2022-11-17T19:36:08.192Z,95980.56
2022-11-17T19:39:12.091Z,95994.88
2022-11-17T19:42:14.170Z,95989.53
2022-11-17T19:45:17.332Z,95989.34
2022-11-17T19:48:19.445Z,95984.75
2022-11-17T19:51:24.056Z,95992.63
2022-11-17T19:54:26.189Z,95989.50
2022-11-17T19:57:28.284Z,95988.13
2022-11-17T20:00:30.346Z,95988.09
2022-11-17T20:03:34.358Z,95991.03
2022-11-17T20:06:37.842Z,95989.09
2022-11-17T20:09:39.934Z,95978.16
2022-11-17T20:12:43.408Z,95992.28
2022-11-17T20:15:45.498Z,95981.88
2022-11-17T20:18:52.602Z,95990.94
2022-11-17T20:21:59.683Z,95986.81
2022-11-17T20:25:03.695Z,95998.09
2022-11-17T20:28:05.971Z,95995.22
2022-11-17T20:31:22.623Z,96005.94
2022-11-17T20:34:24.842Z,96004.06
2022-11-17T20:37:27.280Z,96007.59
2022-11-17T20:40:30.654Z,96003.81
2022-11-17T20:43:33.297Z,96006.03
2022-11-17T20:46:35.414Z,96003.28
2022-11-17T20:49:37.630Z,96002.75
2022-11-17T20:52:39.927Z,96012.75
2022-11-17T20:55:42.065Z,96011.41
2022-11-17T20:58:44.304Z,96012.75
2022-11-17T21:01:47.086Z,96010.78
2022-11-17T21:04:49.198Z,96022.28
2022-11-17T21:07:51.294Z,96028.00
2022-11-17T21:10:57.405Z,96016.47
2022-11-17T21:13:59.905Z,96018.66
2022-11-17T21:17:02.338Z,96018.16
2022-11-17T21:20:05.074Z,96014.31
2022-11-17T21:23:07.335Z,96016.47
2022-11-17T21:26:14.267Z,96018.84
2022-11-17T21:29:16.455Z,96019.91
2022-11-17T21:32:18.545Z,96024.63
2022-11-17T21:35:20.982Z,96021.00
2022-11-17T21:38:23.164Z,96020.94
2022-11-17T21:41:27.681Z,96022.47
2022-11-17T21:44:29.862Z,96017.25
2022-11-17T21:47:31.947Z,96018.84
2022-11-17T21:50:34.015Z,96023.00
2022-11-17T21:53:36.116Z,96020.78
2022-11-17T21:56:38.213Z,96021.13
2022-11-17T21:59:40.419Z,96025.06
2022-11-17T22:02:42.533Z,96027.59
2022-11-17T22:05:44.767Z,96029.44
2022-11-17T22:08:47.381Z,96023.78
2022-11-17T22:11:51.844Z,96015.91
2022-11-17T22:14:54.002Z,96015.16
2022-11-17T22:17:56.142Z,96020.19
2022-11-17T22:20:58.314Z,96015.63
2022-11-17T22:24:00.587Z,96015.34
2022-11-17T22:27:02.663Z,96010.97
2022-11-17T22:30:05.519Z,96014.94
2022-11-17T22:33:07.609Z,96017.22
2022-11-17T22:36:09.973Z,96012.94
2022-11-17T22:39:12.134Z,96006.81
2022-11-17T22:42:15.452Z,95999.41
2022-11-17T22:45:17.586Z,95990.06
2022-11-17T22:48:19.693Z,95992.97
2022-11-17T22:51:40.315Z,95993.06
2022-11-17T22:54:42.514Z,95990.22
2022-11-17T22:57:44.573Z,95986.72
2022-11-17T23:00:47.251Z,95987.06
2022-11-17T23:03:49.524Z,95992.81
2022-11-17T23:06:51.850Z,95989.72
2022-11-17T23:09:54.051Z,95988.19
2022-11-17T23:12:56.150Z,95976.78
2022-11-17T23:15:58.394Z,95984.91
2022-11-17T23:19:00.491Z,95985.84
2022-11-17T23:22:02.622Z,95996.06
2022-11-17T23:25:05.198Z,95993.91
2022-11-17T23:28:07.644Z,96000.75
2022-11-17T23:31:14.017Z,95996.69
2022-11-17T23:34:16.127Z,95993.63
2022-11-17T23:37:18.238Z,96005.47
2022-11-17T23:40:20.293Z,96004.22
2022-11-17T23:43:22.422Z,96007.09
2022-11-17T23:46:25.455Z,95997.66
2022-11-17T23:49:27.794Z,96005.00
2022-11-17T23:52:29.910Z,96014.66
2022-11-17T23:55:32.510Z,96016.09
2022-11-17T23:58:34.708Z,96018.88
